Poseidon — WDJ2022 — position and weather

sailwx.info

Track history (hours):
 
Tides and Currents Weather Stations Pressure Air Temp Water Temp Dewpoint Dewpoint Depression Visibility Wind Speed Wind Dir Waves Ship Positions

Poseidon

Owner: G & H Towing Company, Galveston, TX. More information available from US FCC via Universal Licensing System and Coast Guard Vessel Documentation Center.

Last reported at 2018-Feb-24 16:50 UTC. Time now 2018-Feb-24 19:37 UTC.
Position N 29°43' W 095°01'.

Length 24 m; draft 5.4 m.

Type: Tug. MMSI: 367754480.

Date/timePositionNaut miles runAvg speedWind from/ knotsBaromVisibWave heightAir tempDewpointWater temp
2018-Feb-24 16:50N 29°43' W 095°01'3 8.7
2018-Feb-24 16:30N 29°41' W 094°59'4 8.1
2018-Feb-24 16:00N 29°37' W 094°58'2 1.8
2018-Feb-24 15:01N 29°37' W 094°60'0 0.0
2018-Feb-24 10:55N 29°37' W 094°60'0 0.0
2018-Feb-24 10:22N 29°37' W 094°60'0 0.0
2018-Feb-24 09:58N 29°37' W 094°60'0 0.0
2018-Feb-24 08:55N 29°37' W 094°60'0 0.0
2018-Feb-24 08:16N 29°37' W 094°60'0 0.0
2018-Feb-24 07:46N 29°37' W 094°60'0 0.0
2018-Feb-24 07:28N 29°37' W 094°60'0 0.0
2018-Feb-24 01:52N 29°37' W 094°60'0 0.0
2018-Feb-23 23:11N 29°37' W 094°60'0 2.8
2018-Feb-23 23:00N 29°37' W 095°01'0 0.0
2018-Feb-23 22:28N 29°37' W 095°01'0 0.0
2018-Feb-23 21:58N 29°37' W 095°01'1 2.1
2018-Feb-23 21:30N 29°37' W 094°59'0 0.0
2018-Feb-23 20:53N 29°37' W 094°59'1 2.1
2018-Feb-23 20:28N 29°37' W 095°00'0 0.4
2018-Feb-23 20:00N 29°37' W 095°00'0 0.3
2018-Feb-23 19:30N 29°37' W 095°00'3 5.3
2018-Feb-23 19:00N 29°37' W 094°57'4 8.7
2018-Feb-23 18:31N 29°41' W 094°59'2 3.3
2018-Feb-23 17:52N 29°42' W 095°01'3 1.9
2018-Feb-23 16:30N 29°44' W 095°03'4 0.3
2018-Feb-23 05:23N 29°44' W 095°07'1 2.6
2018-Feb-23 04:52N 29°45' W 095°06'1 0.3
2018-Feb-23 02:47N 29°44' W 095°07'0 0.0
2018-Feb-23 02:20N 29°44' W 095°07'3 2.2
2018-Feb-23 00:58N 29°45' W 095°10'0 0.1
2018-Feb-23 00:19N 29°45' W 095°10'2 0.2
2018-Feb-22 14:49N 29°44' W 095°12'2 0.2
2018-Feb-22 06:01N 29°43' W 095°14'6 0.1
2018-Feb-20 14:04N 29°44' W 095°07'0 0.0
2018-Feb-20 14:00N 29°44' W 095°07'0 0.0
2018-Feb-20 13:30N 29°44' W 095°07'3 0.4
2018-Feb-20 05:42N 29°45' W 095°10'0 0.3
2018-Feb-20 05:20N 29°45' W 095°10'0 0.0
2018-Feb-20 04:44N 29°45' W 095°10'0 0.0
2018-Feb-20 04:29N 29°45' W 095°10'3 2.0
2018-Feb-20 03:06N 29°44' W 095°07'0 3.6
2018-Feb-20 02:59N 29°44' W 095°07'1 1.9
2018-Feb-20 02:30N 29°45' W 095°06'0 0.0
2018-Feb-20 01:54N 29°45' W 095°06'1 2.6
2018-Feb-20 01:30N 29°46' W 095°05'0 0.1
2018-Feb-20 00:11N 29°46' W 095°05'0 0.1
2018-Feb-19 23:59N 29°46' W 095°05'1 0.3
2018-Feb-19 22:16N 29°46' W 095°05'2 5.5
2018-Feb-19 21:54N 29°45' W 095°07'0 0.0
2018-Feb-19 21:09N 29°45' W 095°07'1 0.2
2018-Feb-19 18:34N 29°45' W 095°06'0 0.1
2018-Feb-19 14:02N 29°45' W 095°06'0 7.1
2018-Feb-19 13:59N 29°44' W 095°07'3 0.7
2018-Feb-19 10:01N 29°45' W 095°10'3 0.1
2018-Feb-18 06:53N 29°45' W 095°07'0 0.0
2018-Feb-18 06:29N 29°45' W 095°07'2 0.7
2018-Feb-18 03:46N 29°44' W 095°09'2 0.4
2018-Feb-17 23:23N 29°45' W 095°07'1 0.4
2018-Feb-17 22:06N 29°45' W 095°06'0 0.2
2018-Feb-17 19:59N 29°45' W 095°06'1 0.0
2018-Feb-16 23:40N 29°44' W 095°07'1 0.3
2018-Feb-16 18:51N 29°45' W 095°06'0 0.3
2018-Feb-16 18:24N 29°45' W 095°06'0 0.6
2018-Feb-16 18:00N 29°45' W 095°06'0 0.0
2018-Feb-16 17:28N 29°45' W 095°06'0 0.0
2018-Feb-16 16:58N 29°45' W 095°06'0 0.0
2018-Feb-16 16:25N 29°45' W 095°06'0 0.0
2018-Feb-16 15:58N 29°45' W 095°06'0 0.0
2018-Feb-16 15:28N 29°45' W 095°06'0 0.0
2018-Feb-16 14:55N 29°45' W 095°06'0 0.0
2018-Feb-16 14:19N 29°45' W 095°06'0 0.0
2018-Feb-16 13:58N 29°45' W 095°06'1 0.2
2018-Feb-16 10:43N 29°44' W 095°07'  
Track history (hours):
 
Tides and Currents Weather Stations Pressure Air Temp Water Temp Dewpoint Dewpoint Depression Visibility Wind Speed Wind Dir Waves Ship Positions

Poseidon

Owner: G & H Towing Company, Galveston, TX. More information available from US FCC via Universal Licensing System and Coast Guard Vessel Documentation Center.

Last reported at 2018-Feb-24 16:50 UTC. Time now 2018-Feb-24 19:37 UTC.
Position N 29°43' W 095°01'.

Length 24 m; draft 5.4 m.

Type: Tug. MMSI: 367754480.

Date/timePositionNaut miles runAvg speedWind from/ knotsBaromVisibWave heightAir tempDewpointWater temp
2018-Feb-24 16:50N 29°43' W 095°01'3 8.7
2018-Feb-24 16:30N 29°41' W 094°59'4 8.1
2018-Feb-24 16:00N 29°37' W 094°58'2 1.8
2018-Feb-24 15:01N 29°37' W 094°60'0 0.0
2018-Feb-24 10:55N 29°37' W 094°60'0 0.0
2018-Feb-24 10:22N 29°37' W 094°60'0 0.0
2018-Feb-24 09:58N 29°37' W 094°60'0 0.0
2018-Feb-24 08:55N 29°37' W 094°60'0 0.0
2018-Feb-24 08:16N 29°37' W 094°60'0 0.0
2018-Feb-24 07:46N 29°37' W 094°60'0 0.0
2018-Feb-24 07:28N 29°37' W 094°60'0 0.0
2018-Feb-24 01:52N 29°37' W 094°60'0 0.0
2018-Feb-23 23:11N 29°37' W 094°60'0 2.8
2018-Feb-23 23:00N 29°37' W 095°01'0 0.0
2018-Feb-23 22:28N 29°37' W 095°01'0 0.0
2018-Feb-23 21:58N 29°37' W 095°01'1 2.1
2018-Feb-23 21:30N 29°37' W 094°59'0 0.0
2018-Feb-23 20:53N 29°37' W 094°59'1 2.1
2018-Feb-23 20:28N 29°37' W 095°00'0 0.4
2018-Feb-23 20:00N 29°37' W 095°00'0 0.3
2018-Feb-23 19:30N 29°37' W 095°00'3 5.3
2018-Feb-23 19:00N 29°37' W 094°57'4 8.7
2018-Feb-23 18:31N 29°41' W 094°59'2 3.3
2018-Feb-23 17:52N 29°42' W 095°01'3 1.9
2018-Feb-23 16:30N 29°44' W 095°03'4 0.3
2018-Feb-23 05:23N 29°44' W 095°07'1 2.6
2018-Feb-23 04:52N 29°45' W 095°06'1 0.3
2018-Feb-23 02:47N 29°44' W 095°07'0 0.0
2018-Feb-23 02:20N 29°44' W 095°07'3 2.2
2018-Feb-23 00:58N 29°45' W 095°10'0 0.1
2018-Feb-23 00:19N 29°45' W 095°10'2 0.2
2018-Feb-22 14:49N 29°44' W 095°12'2 0.2
2018-Feb-22 06:01N 29°43' W 095°14'6 0.1
2018-Feb-20 14:04N 29°44' W 095°07'0 0.0
2018-Feb-20 14:00N 29°44' W 095°07'0 0.0
2018-Feb-20 13:30N 29°44' W 095°07'3 0.4
2018-Feb-20 05:42N 29°45' W 095°10'0 0.3
2018-Feb-20 05:20N 29°45' W 095°10'0 0.0
2018-Feb-20 04:44N 29°45' W 095°10'0 0.0
2018-Feb-20 04:29N 29°45' W 095°10'3 2.0
2018-Feb-20 03:06N 29°44' W 095°07'0 3.6
2018-Feb-20 02:59N 29°44' W 095°07'1 1.9
2018-Feb-20 02:30N 29°45' W 095°06'0 0.0
2018-Feb-20 01:54N 29°45' W 095°06'1 2.6
2018-Feb-20 01:30N 29°46' W 095°05'0 0.1
2018-Feb-20 00:11N 29°46' W 095°05'0 0.1
2018-Feb-19 23:59N 29°46' W 095°05'1 0.3
2018-Feb-19 22:16N 29°46' W 095°05'2 5.5
2018-Feb-19 21:54N 29°45' W 095°07'0 0.0
2018-Feb-19 21:09N 29°45' W 095°07'1 0.2
2018-Feb-19 18:34N 29°45' W 095°06'0 0.1
2018-Feb-19 14:02N 29°45' W 095°06'0 7.1
2018-Feb-19 13:59N 29°44' W 095°07'3 0.7
2018-Feb-19 10:01N 29°45' W 095°10'3 0.1
2018-Feb-18 06:53N 29°45' W 095°07'0 0.0
2018-Feb-18 06:29N 29°45' W 095°07'2 0.7
2018-Feb-18 03:46N 29°44' W 095°09'2 0.4
2018-Feb-17 23:23N 29°45' W 095°07'1 0.4
2018-Feb-17 22:06N 29°45' W 095°06'0 0.2
2018-Feb-17 19:59N 29°45' W 095°06'1 0.0
2018-Feb-16 23:40N 29°44' W 095°07'1 0.3
2018-Feb-16 18:51N 29°45' W 095°06'0 0.3
2018-Feb-16 18:24N 29°45' W 095°06'0 0.6
2018-Feb-16 18:00N 29°45' W 095°06'0 0.0
2018-Feb-16 17:28N 29°45' W 095°06'0 0.0
2018-Feb-16 16:58N 29°45' W 095°06'0 0.0
2018-Feb-16 16:25N 29°45' W 095°06'0 0.0
2018-Feb-16 15:58N 29°45' W 095°06'0 0.0
2018-Feb-16 15:28N 29°45' W 095°06'0 0.0
2018-Feb-16 14:55N 29°45' W 095°06'0 0.0
2018-Feb-16 14:19N 29°45' W 095°06'0 0.0
2018-Feb-16 13:58N 29°45' W 095°06'1 0.2
2018-Feb-16 10:43N 29°44' W 095°07'  

Dump ship's entire track history